sensor_id;sensor_type;location;lat;lon;timestamp;temperature;humidity
22430;DHT22;11382;48.086;11.632;2022-09-16T00:01:09;13.90;99.90
22430;DHT22;11382;48.086;11.632;2022-09-16T00:03:37;13.80;99.90
22430;DHT22;11382;48.086;11.632;2022-09-16T00:06:11;13.90;99.90
22430;DHT22;11382;48.086;11.632;2022-09-16T00:08:42;13.90;99.90
22430;DHT22;11382;48.086;11.632;2022-09-16T00:11:11;14.00;99.90
22430;DHT22;11382;48.086;11.632;2022-09-16T00:13:39;14.00;99.90
22430;DHT22;11382;48.086;11.632;2022-09-16T00:16:09;14.00;99.90
22430;DHT22;11382;48.086;11.632;2022-09-16T00:18:37;14.00;99.90
22430;DHT22;11382;48.086;11.632;2022-09-16T00:21:08;13.90;99.90
22430;DHT22;11382;48.086;11.632;2022-09-16T00:23:36;13.90;99.90
22430;DHT22;11382;48.086;11.632;2022-09-16T00:26:04;13.90;99.90
22430;DHT22;11382;48.086;11.632;2022-09-16T00:28:32;13.80;99.90
22430;DHT22;11382;48.086;11.632;2022-09-16T00:31:01;13.80;99.90
22430;DHT22;11382;48.086;11.632;2022-09-16T00:33:29;13.70;99.90
22430;DHT22;11382;48.086;11.632;2022-09-16T00:36:04;13.70;99.90
22430;DHT22;11382;48.086;11.632;2022-09-16T00:38:33;13.70;99.90
22430;DHT22;11382;48.086;11.632;2022-09-16T00:41:02;13.70;99.90
22430;DHT22;11382;48.086;11.632;2022-09-16T00:43:46;13.70;99.90
22430;DHT22;11382;48.086;11.632;2022-09-16T00:46:15;13.70;99.90
22430;DHT22;11382;48.086;11.632;2022-09-16T00:48:44;13.70;99.90
22430;DHT22;11382;48.086;11.632;2022-09-16T00:51:13;13.80;99.90
22430;DHT22;11382;48.086;11.632;2022-09-16T00:53:46;13.60;99.90
22430;DHT22;11382;48.086;11.632;2022-09-16T00:56:19;13.70;99.90
22430;DHT22;11382;48.086;11.632;2022-09-16T00:58:52;13.70;99.90
22430;DHT22;11382;48.086;11.632;2022-09-16T01:01:28;13.70;99.90
22430;DHT22;11382;48.086;11.632;2022-09-16T01:03:58;13.80;99.90
22430;DHT22;11382;48.086;11.632;2022-09-16T01:06:28;13.80;99.90
22430;DHT22;11382;48.086;11.632;2022-09-16T01:08:59;13.90;99.90
22430;DHT22;11382;48.086;11.632;2022-09-16T01:11:27;13.80;99.90
22430;DHT22;11382;48.086;11.632;2022-09-16T01:13:55;13.80;99.90
22430;DHT22;11382;48.086;11.632;2022-09-16T01:16:47;13.70;99.90
22430;DHT22;11382;48.086;11.632;2022-09-16T01:19:27;13.60;99.90
22430;DHT22;11382;48.086;11.632;2022-09-16T01:22:07;13.60;99.90
22430;DHT22;11382;48.086;11.632;2022-09-16T01:24:49;13.60;99.90
22430;DHT22;11382;48.086;11.632;2022-09-16T01:27:39;13.50;99.90
22430;DHT22;11382;48.086;11.632;2022-09-16T01:30:39;13.50;99.90
22430;DHT22;11382;48.086;11.632;2022-09-16T01:33:15;13.50;99.90
22430;DHT22;11382;48.086;11.632;2022-09-16T01:36:08;13.50;99.90
22430;DHT22;11382;48.086;11.632;2022-09-16T01:38:49;13.40;99.90
22430;DHT22;11382;48.086;11.632;2022-09-16T01:41:24;13.40;99.90
22430;DHT22;11382;48.086;11.632;2022-09-16T01:43:59;13.40;99.90
22430;DHT22;11382;48.086;11.632;2022-09-16T01:46:36;13.40;99.90
22430;DHT22;11382;48.086;11.632;2022-09-16T01:49:15;13.40;99.90
22430;DHT22;11382;48.086;11.632;2022-09-16T01:51:48;13.30;99.90
22430;DHT22;11382;48.086;11.632;2022-09-16T01:54:22;13.20;99.90
22430;DHT22;11382;48.086;11.632;2022-09-16T01:56:56;13.20;99.90
22430;DHT22;11382;48.086;11.632;2022-09-16T01:59:32;13.10;99.90
22430;DHT22;11382;48.086;11.632;2022-09-16T02:02:05;13.20;99.90
22430;DHT22;11382;48.086;11.632;2022-09-16T02:04:39;13.20;99.90
22430;DHT22;11382;48.086;11.632;2022-09-16T02:07:10;13.30;99.90
22430;DHT22;11382;48.086;11.632;2022-09-16T02:09:41;13.20;99.90
22430;DHT22;11382;48.086;11.632;2022-09-16T02:12:14;13.20;99.90
22430;DHT22;11382;48.086;11.632;2022-09-16T02:14:46;13.30;99.90
22430;DHT22;11382;48.086;11.632;2022-09-16T02:17:20;13.30;99.90
22430;DHT22;11382;48.086;11.632;2022-09-16T02:19:53;13.30;99.90
22430;DHT22;11382;48.086;11.632;2022-09-16T02:22:26;13.40;99.90
22430;DHT22;11382;48.086;11.632;2022-09-16T02:24:58;13.50;99.90
22430;DHT22;11382;48.086;11.632;2022-09-16T02:27:28;13.50;99.90
22430;DHT22;11382;48.086;11.632;2022-09-16T02:30:00;13.50;99.90
22430;DHT22;11382;48.086;11.632;2022-09-16T02:32:33;13.40;99.90
22430;DHT22;11382;48.086;11.632;2022-09-16T02:35:04;13.40;99.90
22430;DHT22;11382;48.086;11.632;2022-09-16T02:37:39;13.30;99.90
22430;DHT22;11382;48.086;11.632;2022-09-16T02:40:13;13.30;99.90
22430;DHT22;11382;48.086;11.632;2022-09-16T02:42:42;13.30;99.90
22430;DHT22;11382;48.086;11.632;2022-09-16T02:45:11;13.40;99.90
22430;DHT22;11382;48.086;11.632;2022-09-16T02:47:46;13.30;99.90
22430;DHT22;11382;48.086;11.632;2022-09-16T02:50:19;13.40;99.90
22430;DHT22;11382;48.086;11.632;2022-09-16T02:52:53;13.40;99.90
22430;DHT22;11382;48.086;11.632;2022-09-16T02:55:32;13.40;99.90
22430;DHT22;11382;48.086;11.632;2022-09-16T02:58:00;13.40;99.90
22430;DHT22;11382;48.086;11.632;2022-09-16T03:00:29;13.40;99.90
22430;DHT22;11382;48.086;11.632;2022-09-16T03:03:00;13.40;99.90
22430;DHT22;11382;48.086;11.632;2022-09-16T03:05:29;13.50;99.90
22430;DHT22;11382;48.086;11.632;2022-09-16T03:07:57;13.40;99.90
22430;DHT22;11382;48.086;11.632;2022-09-16T03:10:30;13.40;99.90
22430;DHT22;11382;48.086;11.632;2022-09-16T03:13:04;13.40;99.90
22430;DHT22;11382;48.086;11.632;2022-09-16T03:15:47;13.40;99.90
22430;DHT22;11382;48.086;11.632;2022-09-16T03:18:37;13.40;99.90
22430;DHT22;11382;48.086;11.632;2022-09-16T03:21:13;13.40;99.90
22430;DHT22;11382;48.086;11.632;2022-09-16T03:23:48;13.40;99.90
22430;DHT22;11382;48.086;11.632;2022-09-16T03:26:24;13.20;99.90
22430;DHT22;11382;48.086;11.632;2022-09-16T03:29:04;13.30;99.90
22430;DHT22;11382;48.086;11.632;2022-09-16T03:31:45;13.30;99.90
22430;DHT22;11382;48.086;11.632;2022-09-16T03:34:19;13.30;99.90
22430;DHT22;11382;48.086;11.632;2022-09-16T03:36:50;13.30;99.90
22430;DHT22;11382;48.086;11.632;2022-09-16T03:39:20;13.20;99.90
22430;DHT22;11382;48.086;11.632;2022-09-16T03:41:48;13.30;99.90
22430;DHT22;11382;48.086;11.632;2022-09-16T03:44:16;13.20;99.90
22430;DHT22;11382;48.086;11.632;2022-09-16T03:46:44;13.20;99.90
22430;DHT22;11382;48.086;11.632;2022-09-16T03:49:12;13.20;99.90
22430;DHT22;11382;48.086;11.632;2022-09-16T03:51:41;13.20;99.90
22430;DHT22;11382;48.086;11.632;2022-09-16T03:54:09;13.20;99.90
22430;DHT22;11382;48.086;11.632;2022-09-16T03:56:37;13.20;99.90
22430;DHT22;11382;48.086;11.632;2022-09-16T03:59:05;13.20;99.90
22430;DHT22;11382;48.086;11.632;2022-09-16T04:01:32;13.20;99.90
22430;DHT22;11382;48.086;11.632;2022-09-16T04:04:01;13.10;99.90
22430;DHT22;11382;48.086;11.632;2022-09-16T04:06:29;13.20;99.90
22430;DHT22;11382;48.086;11.632;2022-09-16T04:09:01;13.20;99.90
22430;DHT22;11382;48.086;11.632;2022-09-16T04:11:29;13.10;99.90
22430;DHT22;11382;48.086;11.632;2022-09-16T04:13:58;13.10;99.90
22430;DHT22;11382;48.086;11.632;2022-09-16T04:16:26;13.10;99.90
22430;DHT22;11382;48.086;11.632;2022-09-16T04:18:54;13.10;99.90
22430;DHT22;11382;48.086;11.632;2022-09-16T04:21:22;13.10;99.90
22430;DHT22;11382;48.086;11.632;2022-09-16T04:23:50;13.10;99.90
22430;DHT22;11382;48.086;11.632;2022-09-16T04:26:21;13.10;99.90
22430;DHT22;11382;48.086;11.632;2022-09-16T04:28:51;13.10;99.90
22430;DHT22;11382;48.086;11.632;2022-09-16T04:31:20;13.10;99.90
22430;DHT22;11382;48.086;11.632;2022-09-16T04:33:48;13.10;99.90
22430;DHT22;11382;48.086;11.632;2022-09-16T04:36:18;13.10;99.90
22430;DHT22;11382;48.086;11.632;2022-09-16T04:38:47;13.10;99.90
22430;DHT22;11382;48.086;11.632;2022-09-16T04:41:17;13.00;99.90
22430;DHT22;11382;48.086;11.632;2022-09-16T04:43:50;13.10;99.90
22430;DHT22;11382;48.086;11.632;2022-09-16T04:46:19;13.10;99.90
22430;DHT22;11382;48.086;11.632;2022-09-16T04:48:47;13.10;99.90
22430;DHT22;11382;48.086;11.632;2022-09-16T04:51:15;13.10;99.90
22430;DHT22;11382;48.086;11.632;2022-09-16T04:53:44;13.20;99.90
22430;DHT22;11382;48.086;11.632;2022-09-16T04:56:13;13.20;99.90
22430;DHT22;11382;48.086;11.632;2022-09-16T04:58:42;13.30;99.90
22430;DHT22;11382;48.086;11.632;2022-09-16T05:01:13;13.30;99.90
22430;DHT22;11382;48.086;11.632;2022-09-16T05:03:42;13.30;99.90
22430;DHT22;11382;48.086;11.632;2022-09-16T05:06:12;13.30;99.90
22430;DHT22;11382;48.086;11.632;2022-09-16T05:08:46;13.30;99.90
22430;DHT22;11382;48.086;11.632;2022-09-16T05:11:16;13.30;99.90
22430;DHT22;11382;48.086;11.632;2022-09-16T05:13:44;13.30;99.90
22430;DHT22;11382;48.086;11.632;2022-09-16T05:16:15;13.30;99.90
22430;DHT22;11382;48.086;11.632;2022-09-16T05:18:46;13.40;99.90
22430;DHT22;11382;48.086;11.632;2022-09-16T05:21:16;13.40;99.90
22430;DHT22;11382;48.086;11.632;2022-09-16T05:23:45;13.40;99.90
22430;DHT22;11382;48.086;11.632;2022-09-16T05:26:15;13.50;99.90
22430;DHT22;11382;48.086;11.632;2022-09-16T05:28:43;13.50;99.90
22430;DHT22;11382;48.086;11.632;2022-09-16T05:31:14;13.60;99.90
22430;DHT22;11382;48.086;11.632;2022-09-16T05:33:44;13.60;99.90
22430;DHT22;11382;48.086;11.632;2022-09-16T05:36:13;13.60;99.90
22430;DHT22;11382;48.086;11.632;2022-09-16T05:38:42;13.60;99.90
22430;DHT22;11382;48.086;11.632;2022-09-16T05:41:30;13.50;99.90
22430;DHT22;11382;48.086;11.632;2022-09-16T05:43:59;13.60;99.90
22430;DHT22;11382;48.086;11.632;2022-09-16T05:46:28;13.60;99.90
22430;DHT22;11382;48.086;11.632;2022-09-16T05:48:57;13.70;99.90
22430;DHT22;11382;48.086;11.632;2022-09-16T05:51:25;13.60;99.90
22430;DHT22;11382;48.086;11.632;2022-09-16T05:53:53;13.60;99.90
22430;DHT22;11382;48.086;11.632;2022-09-16T05:56:23;13.50;99.90
22430;DHT22;11382;48.086;11.632;2022-09-16T05:58:53;13.50;99.90
22430;DHT22;11382;48.086;11.632;2022-09-16T06:01:22;13.40;99.90
22430;DHT22;11382;48.086;11.632;2022-09-16T06:03:52;13.50;99.90
22430;DHT22;11382;48.086;11.632;2022-09-16T06:06:23;13.50;99.90
22430;DHT22;11382;48.086;11.632;2022-09-16T06:08:52;13.70;99.90
22430;DHT22;11382;48.086;11.632;2022-09-16T06:11:21;13.90;99.90
22430;DHT22;11382;48.086;11.632;2022-09-16T06:13:52;14.20;99.90
22430;DHT22;11382;48.086;11.632;2022-09-16T06:16:22;14.40;99.90
22430;DHT22;11382;48.086;11.632;2022-09-16T06:18:53;14.60;99.90
22430;DHT22;11382;48.086;11.632;2022-09-16T06:21:22;14.70;99.90
22430;DHT22;11382;48.086;11.632;2022-09-16T06:23:50;14.70;99.90
22430;DHT22;11382;48.086;11.632;2022-09-16T06:26:20;14.60;99.90
22430;DHT22;11382;48.086;11.632;2022-09-16T06:28:49;14.60;99.90
22430;DHT22;11382;48.086;11.632;2022-09-16T06:31:18;14.50;99.90
22430;DHT22;11382;48.086;11.632;2022-09-16T06:33:46;14.40;99.90
22430;DHT22;11382;48.086;11.632;2022-09-16T06:36:18;14.50;99.90
22430;DHT22;11382;48.086;11.632;2022-09-16T06:38:47;14.70;99.90
22430;DHT22;11382;48.086;11.632;2022-09-16T06:41:17;14.90;99.90
22430;DHT22;11382;48.086;11.632;2022-09-16T06:43:45;14.90;99.90
22430;DHT22;11382;48.086;11.632;2022-09-16T06:46:15;14.80;99.90
22430;DHT22;11382;48.086;11.632;2022-09-16T06:48:45;15.00;99.90
22430;DHT22;11382;48.086;11.632;2022-09-16T06:51:15;15.10;99.90
22430;DHT22;11382;48.086;11.632;2022-09-16T06:53:45;15.20;99.90
22430;DHT22;11382;48.086;11.632;2022-09-16T06:56:15;15.20;99.90
22430;DHT22;11382;48.086;11.632;2022-09-16T06:58:44;15.30;99.90
22430;DHT22;11382;48.086;11.632;2022-09-16T07:01:15;15.40;99.90
22430;DHT22;11382;48.086;11.632;2022-09-16T07:03:46;15.30;99.90
22430;DHT22;11382;48.086;11.632;2022-09-16T07:06:15;15.50;99.90
22430;DHT22;11382;48.086;11.632;2022-09-16T07:08:44;15.60;99.90
22430;DHT22;11382;48.086;11.632;2022-09-16T07:11:14;15.50;99.90
22430;DHT22;11382;48.086;11.632;2022-09-16T07:13:43;15.60;99.90
22430;DHT22;11382;48.086;11.632;2022-09-16T07:16:13;15.50;99.90
22430;DHT22;11382;48.086;11.632;2022-09-16T07:18:42;15.30;99.90
22430;DHT22;11382;48.086;11.632;2022-09-16T07:21:11;15.20;99.90
22430;DHT22;11382;48.086;11.632;2022-09-16T07:23:41;15.10;99.90
22430;DHT22;11382;48.086;11.632;2022-09-16T07:26:11;15.00;99.90
22430;DHT22;11382;48.086;11.632;2022-09-16T07:28:40;15.10;99.90
22430;DHT22;11382;48.086;11.632;2022-09-16T07:31:10;15.30;99.90
22430;DHT22;11382;48.086;11.632;2022-09-16T07:33:40;15.50;99.90
22430;DHT22;11382;48.086;11.632;2022-09-16T07:36:10;15.50;99.90
22430;DHT22;11382;48.086;11.632;2022-09-16T07:38:38;15.50;99.90
22430;DHT22;11382;48.086;11.632;2022-09-16T07:41:07;15.50;99.90
22430;DHT22;11382;48.086;11.632;2022-09-16T07:43:38;15.40;99.90
22430;DHT22;11382;48.086;11.632;2022-09-16T07:46:07;15.50;99.90
22430;DHT22;11382;48.086;11.632;2022-09-16T07:48:36;15.60;99.90
22430;DHT22;11382;48.086;11.632;2022-09-16T07:51:06;15.70;99.90
22430;DHT22;11382;48.086;11.632;2022-09-16T07:53:35;15.80;99.90
22430;DHT22;11382;48.086;11.632;2022-09-16T07:56:04;16.10;99.90
22430;DHT22;11382;48.086;11.632;2022-09-16T07:58:33;16.20;99.90
22430;DHT22;11382;48.086;11.632;2022-09-16T08:01:02;16.30;99.90
22430;DHT22;11382;48.086;11.632;2022-09-16T08:03:31;16.30;99.90
22430;DHT22;11382;48.086;11.632;2022-09-16T08:05:59;16.30;99.90
22430;DHT22;11382;48.086;11.632;2022-09-16T08:08:29;16.10;99.90
22430;DHT22;11382;48.086;11.632;2022-09-16T08:10:58;16.10;99.90
22430;DHT22;11382;48.086;11.632;2022-09-16T08:13:29;16.20;99.90
22430;DHT22;11382;48.086;11.632;2022-09-16T08:16:00;16.30;99.90
22430;DHT22;11382;48.086;11.632;2022-09-16T08:18:29;16.40;99.90
22430;DHT22;11382;48.086;11.632;2022-09-16T08:20:57;16.60;99.90
22430;DHT22;11382;48.086;11.632;2022-09-16T08:23:27;16.70;99.90
22430;DHT22;11382;48.086;11.632;2022-09-16T08:25:56;16.60;99.90
22430;DHT22;11382;48.086;11.632;2022-09-16T08:28:26;16.50;99.90
22430;DHT22;11382;48.086;11.632;2022-09-16T08:31:14;16.50;99.90
22430;DHT22;11382;48.086;11.632;2022-09-16T08:33:44;16.60;99.90
22430;DHT22;11382;48.086;11.632;2022-09-16T08:36:14;16.70;99.90
22430;DHT22;11382;48.086;11.632;2022-09-16T08:38:43;16.80;99.90
22430;DHT22;11382;48.086;11.632;2022-09-16T08:41:45;16.60;99.90
22430;DHT22;11382;48.086;11.632;2022-09-16T08:44:22;16.70;99.90
22430;DHT22;11382;48.086;11.632;2022-09-16T08:46:55;16.80;99.90
22430;DHT22;11382;48.086;11.632;2022-09-16T08:49:31;17.00;99.90
22430;DHT22;11382;48.086;11.632;2022-09-16T08:52:04;17.00;99.90
22430;DHT22;11382;48.086;11.632;2022-09-16T08:54:39;17.10;99.90
22430;DHT22;11382;48.086;11.632;2022-09-16T08:57:12;16.90;99.90
22430;DHT22;11382;48.086;11.632;2022-09-16T08:59:46;16.70;99.90
22430;DHT22;11382;48.086;11.632;2022-09-16T09:02:26;16.50;99.90
22430;DHT22;11382;48.086;11.632;2022-09-16T09:04:57;16.40;99.90
22430;DHT22;11382;48.086;11.632;2022-09-16T09:07:31;16.20;99.90
22430;DHT22;11382;48.086;11.632;2022-09-16T09:10:12;16.30;99.90
22430;DHT22;11382;48.086;11.632;2022-09-16T09:12:47;16.50;99.90
22430;DHT22;11382;48.086;11.632;2022-09-16T09:15:33;16.70;99.90
22430;DHT22;11382;48.086;11.632;2022-09-16T09:18:25;16.90;99.90
22430;DHT22;11382;48.086;11.632;2022-09-16T09:21:12;17.00;99.90
22430;DHT22;11382;48.086;11.632;2022-09-16T09:23:49;17.10;99.90
22430;DHT22;11382;48.086;11.632;2022-09-16T09:26:21;17.00;99.90
22430;DHT22;11382;48.086;11.632;2022-09-16T09:29:20;17.00;99.90
22430;DHT22;11382;48.086;11.632;2022-09-16T09:31:56;16.70;99.90
22430;DHT22;11382;48.086;11.632;2022-09-16T09:34:34;16.60;99.90
22430;DHT22;11382;48.086;11.632;2022-09-16T09:37:28;16.60;99.90
22430;DHT22;11382;48.086;11.632;2022-09-16T09:40:03;16.40;99.90
22430;DHT22;11382;48.086;11.632;2022-09-16T09:42:38;16.30;99.90
22430;DHT22;11382;48.086;11.632;2022-09-16T09:45:17;16.40;99.90
22430;DHT22;11382;48.086;11.632;2022-09-16T09:47:48;16.50;99.90
22430;DHT22;11382;48.086;11.632;2022-09-16T09:50:20;16.60;99.90
22430;DHT22;11382;48.086;11.632;2022-09-16T09:52:55;16.90;99.90
22430;DHT22;11382;48.086;11.632;2022-09-16T09:55:26;16.90;99.90
22430;DHT22;11382;48.086;11.632;2022-09-16T09:58:07;17.10;99.90
22430;DHT22;11382;48.086;11.632;2022-09-16T10:00:37;17.00;99.90
22430;DHT22;11382;48.086;11.632;2022-09-16T10:03:09;16.90;99.90
22430;DHT22;11382;48.086;11.632;2022-09-16T10:05:37;16.80;99.90
22430;DHT22;11382;48.086;11.632;2022-09-16T10:08:14;16.80;99.90
22430;DHT22;11382;48.086;11.632;2022-09-16T10:10:47;16.70;99.90
22430;DHT22;11382;48.086;11.632;2022-09-16T10:13:16;16.80;99.90
22430;DHT22;11382;48.086;11.632;2022-09-16T10:15:45;16.80;99.90
22430;DHT22;11382;48.086;11.632;2022-09-16T10:18:23;16.70;99.90
22430;DHT22;11382;48.086;11.632;2022-09-16T10:20:59;16.70;99.90
22430;DHT22;11382;48.086;11.632;2022-09-16T10:23:30;16.80;99.90
22430;DHT22;11382;48.086;11.632;2022-09-16T10:26:13;17.10;99.90
22430;DHT22;11382;48.086;11.632;2022-09-16T10:28:53;17.30;99.90
22430;DHT22;11382;48.086;11.632;2022-09-16T10:31:22;17.60;99.90
22430;DHT22;11382;48.086;11.632;2022-09-16T10:33:55;17.60;99.90
22430;DHT22;11382;48.086;11.632;2022-09-16T10:36:23;17.50;99.90
22430;DHT22;11382;48.086;11.632;2022-09-16T10:38:56;17.30;99.90
22430;DHT22;11382;48.086;11.632;2022-09-16T10:41:32;17.30;99.90
22430;DHT22;11382;48.086;11.632;2022-09-16T10:44:05;17.20;99.90
22430;DHT22;11382;48.086;11.632;2022-09-16T10:46:33;17.30;99.90
22430;DHT22;11382;48.086;11.632;2022-09-16T10:49:08;17.10;99.90
22430;DHT22;11382;48.086;11.632;2022-09-16T10:51:37;17.00;99.90
22430;DHT22;11382;48.086;11.632;2022-09-16T10:54:22;16.80;99.90
22430;DHT22;11382;48.086;11.632;2022-09-16T10:56:51;16.50;99.90
22430;DHT22;11382;48.086;11.632;2022-09-16T10:59:19;16.50;99.90
22430;DHT22;11382;48.086;11.632;2022-09-16T11:01:53;16.40;99.90
22430;DHT22;11382;48.086;11.632;2022-09-16T11:04:39;16.30;99.90
22430;DHT22;11382;48.086;11.632;2022-09-16T11:07:20;16.50;99.90
22430;DHT22;11382;48.086;11.632;2022-09-16T11:09:58;17.30;99.90
22430;DHT22;11382;48.086;11.632;2022-09-16T11:12:48;18.20;99.90
22430;DHT22;11382;48.086;11.632;2022-09-16T11:15:27;18.80;99.90
22430;DHT22;11382;48.086;11.632;2022-09-16T11:18:10;19.00;99.90
22430;DHT22;11382;48.086;11.632;2022-09-16T11:21:03;21.80;99.90
22430;DHT22;11382;48.086;11.632;2022-09-16T11:23:44;24.50;99.90
22430;DHT22;11382;48.086;11.632;2022-09-16T11:26:22;24.50;99.90
22430;DHT22;11382;48.086;11.632;2022-09-16T11:29:13;22.10;99.90
22430;DHT22;11382;48.086;11.632;2022-09-16T11:31:51;19.50;99.90
22430;DHT22;11382;48.086;11.632;2022-09-16T11:34:33;18.10;99.90
22430;DHT22;11382;48.086;11.632;2022-09-16T11:37:11;17.20;99.90
22430;DHT22;11382;48.086;11.632;2022-09-16T11:39:52;16.30;99.90
22430;DHT22;11382;48.086;11.632;2022-09-16T11:42:32;15.50;99.90
22430;DHT22;11382;48.086;11.632;2022-09-16T11:45:17;14.80;99.90
22430;DHT22;11382;48.086;11.632;2022-09-16T11:48:01;14.50;99.90
22430;DHT22;11382;48.086;11.632;2022-09-16T11:50:41;14.10;99.90
22430;DHT22;11382;48.086;11.632;2022-09-16T11:53:42;13.70;99.90
22430;DHT22;11382;48.086;11.632;2022-09-16T11:56:16;13.50;99.90
22430;DHT22;11382;48.086;11.632;2022-09-16T11:58:49;13.20;99.90
22430;DHT22;11382;48.086;11.632;2022-09-16T12:01:27;13.00;99.90
22430;DHT22;11382;48.086;11.632;2022-09-16T12:04:03;12.80;99.90
22430;DHT22;11382;48.086;11.632;2022-09-16T12:06:37;12.80;99.90
22430;DHT22;11382;48.086;11.632;2022-09-16T12:09:12;12.70;99.90
22430;DHT22;11382;48.086;11.632;2022-09-16T12:11:45;12.80;99.90
22430;DHT22;11382;48.086;11.632;2022-09-16T12:14:19;13.00;99.90
22430;DHT22;11382;48.086;11.632;2022-09-16T12:16:53;13.00;99.90
22430;DHT22;11382;48.086;11.632;2022-09-16T12:19:22;13.00;99.90
22430;DHT22;11382;48.086;11.632;2022-09-16T12:21:56;12.80;99.90
22430;DHT22;11382;48.086;11.632;2022-09-16T12:24:30;12.80;99.90
22430;DHT22;11382;48.086;11.632;2022-09-16T12:27:05;12.80;99.90
22430;DHT22;11382;48.086;11.632;2022-09-16T12:29:40;12.80;99.90
22430;DHT22;11382;48.086;11.632;2022-09-16T12:32:14;12.70;99.90
22430;DHT22;11382;48.086;11.632;2022-09-16T12:34:49;12.60;99.90
22430;DHT22;11382;48.086;11.632;2022-09-16T12:37:22;12.60;99.90
22430;DHT22;11382;48.086;11.632;2022-09-16T12:39:53;12.80;99.90
22430;DHT22;11382;48.086;11.632;2022-09-16T12:55:30;13.20;99.90
22430;DHT22;11382;48.086;11.632;2022-09-16T12:58:25;13.10;99.90
22430;DHT22;11382;48.086;11.632;2022-09-16T13:01:06;13.10;99.90
22430;DHT22;11382;48.086;11.632;2022-09-16T13:03:40;12.80;99.90
22430;DHT22;11382;48.086;11.632;2022-09-16T13:06:20;12.80;99.90
22430;DHT22;11382;48.086;11.632;2022-09-16T13:08:49;13.00;99.90
22430;DHT22;11382;48.086;11.632;2022-09-16T13:11:19;12.90;99.90
22430;DHT22;11382;48.086;11.632;2022-09-16T13:14:20;12.80;99.90
22430;DHT22;11382;48.086;11.632;2022-09-16T13:16:55;12.90;99.90
22430;DHT22;11382;48.086;11.632;2022-09-16T13:19:35;12.90;99.90
22430;DHT22;11382;48.086;11.632;2022-09-16T13:22:18;12.70;99.90
22430;DHT22;11382;48.086;11.632;2022-09-16T13:24:52;12.50;99.90
22430;DHT22;11382;48.086;11.632;2022-09-16T13:27:30;12.50;99.90
22430;DHT22;11382;48.086;11.632;2022-09-16T13:30:26;12.60;99.90
22430;DHT22;11382;48.086;11.632;2022-09-16T13:33:21;12.50;99.90
22430;DHT22;11382;48.086;11.632;2022-09-16T13:38:57;12.80;99.90
22430;DHT22;11382;48.086;11.632;2022-09-16T13:41:30;12.90;99.90
22430;DHT22;11382;48.086;11.632;2022-09-16T13:43:59;13.00;99.90
22430;DHT22;11382;48.086;11.632;2022-09-16T13:46:33;13.20;99.90
22430;DHT22;11382;48.086;11.632;2022-09-16T13:49:14;13.30;99.90
22430;DHT22;11382;48.086;11.632;2022-09-16T13:51:44;13.30;99.90
22430;DHT22;11382;48.086;11.632;2022-09-16T13:54:21;13.30;99.90
22430;DHT22;11382;48.086;11.632;2022-09-16T13:57:11;13.20;99.90
22430;DHT22;11382;48.086;11.632;2022-09-16T13:59:56;13.30;99.90
22430;DHT22;11382;48.086;11.632;2022-09-16T14:02:35;13.40;99.90
22430;DHT22;11382;48.086;11.632;2022-09-16T14:05:20;13.60;99.90
22430;DHT22;11382;48.086;11.632;2022-09-16T14:07:55;13.60;99.90
22430;DHT22;11382;48.086;11.632;2022-09-16T14:10:32;13.30;99.90
22430;DHT22;11382;48.086;11.632;2022-09-16T14:13:07;13.10;99.90
22430;DHT22;11382;48.086;11.632;2022-09-16T14:15:40;13.00;99.90
22430;DHT22;11382;48.086;11.632;2022-09-16T14:18:12;13.00;99.90
22430;DHT22;11382;48.086;11.632;2022-09-16T14:20:54;13.00;99.90
22430;DHT22;11382;48.086;11.632;2022-09-16T14:23:24;12.90;99.90
22430;DHT22;11382;48.086;11.632;2022-09-16T14:25:52;12.80;99.90
22430;DHT22;11382;48.086;11.632;2022-09-16T14:28:22;12.60;99.90
22430;DHT22;11382;48.086;11.632;2022-09-16T14:30:53;12.70;99.90
22430;DHT22;11382;48.086;11.632;2022-09-16T14:33:24;12.70;99.90
22430;DHT22;11382;48.086;11.632;2022-09-16T14:35:55;12.80;99.90
22430;DHT22;11382;48.086;11.632;2022-09-16T14:38:31;12.90;99.90
22430;DHT22;11382;48.086;11.632;2022-09-16T14:41:18;13.00;99.90
22430;DHT22;11382;48.086;11.632;2022-09-16T14:43:48;12.90;99.90
22430;DHT22;11382;48.086;11.632;2022-09-16T14:46:17;12.80;99.90
22430;DHT22;11382;48.086;11.632;2022-09-16T14:48:45;12.80;99.90
22430;DHT22;11382;48.086;11.632;2022-09-16T14:51:19;12.80;99.90
22430;DHT22;11382;48.086;11.632;2022-09-16T14:53:56;12.80;99.90
22430;DHT22;11382;48.086;11.632;2022-09-16T14:56:39;12.80;99.90
22430;DHT22;11382;48.086;11.632;2022-09-16T14:59:10;12.90;99.90
22430;DHT22;11382;48.086;11.632;2022-09-16T15:01:39;12.70;99.90
22430;DHT22;11382;48.086;11.632;2022-09-16T15:04:13;12.70;99.90
22430;DHT22;11382;48.086;11.632;2022-09-16T15:06:48;12.80;99.90
22430;DHT22;11382;48.086;11.632;2022-09-16T15:09:23;12.90;99.90
22430;DHT22;11382;48.086;11.632;2022-09-16T15:11:55;13.00;99.90
22430;DHT22;11382;48.086;11.632;2022-09-16T15:14:25;13.00;99.90
22430;DHT22;11382;48.086;11.632;2022-09-16T15:16:55;12.90;99.90
22430;DHT22;11382;48.086;11.632;2022-09-16T15:19:27;12.80;99.90
22430;DHT22;11382;48.086;11.632;2022-09-16T15:21:58;12.80;99.90
22430;DHT22;11382;48.086;11.632;2022-09-16T15:24:28;12.80;99.90
22430;DHT22;11382;48.086;11.632;2022-09-16T15:26:58;12.60;99.90
22430;DHT22;11382;48.086;11.632;2022-09-16T15:29:29;12.50;99.90
22430;DHT22;11382;48.086;11.632;2022-09-16T15:32:16;12.60;99.90
22430;DHT22;11382;48.086;11.632;2022-09-16T15:34:45;12.70;99.90
22430;DHT22;11382;48.086;11.632;2022-09-16T15:37:31;12.80;99.90
22430;DHT22;11382;48.086;11.632;2022-09-16T15:40:20;12.80;99.90
22430;DHT22;11382;48.086;11.632;2022-09-16T15:43:10;12.80;99.90
22430;DHT22;11382;48.086;11.632;2022-09-16T15:45:39;12.80;99.90
22430;DHT22;11382;48.086;11.632;2022-09-16T15:48:13;12.90;99.90
22430;DHT22;11382;48.086;11.632;2022-09-16T15:50:45;12.80;99.90
22430;DHT22;11382;48.086;11.632;2022-09-16T15:53:20;12.80;99.90
22430;DHT22;11382;48.086;11.632;2022-09-16T15:55:57;12.70;99.90
22430;DHT22;11382;48.086;11.632;2022-09-16T15:58:36;12.70;99.90
22430;DHT22;11382;48.086;11.632;2022-09-16T16:01:12;12.60;99.90
22430;DHT22;11382;48.086;11.632;2022-09-16T16:03:55;12.60;99.90
22430;DHT22;11382;48.086;11.632;2022-09-16T16:06:46;12.70;99.90
22430;DHT22;11382;48.086;11.632;2022-09-16T16:09:36;12.40;99.90
22430;DHT22;11382;48.086;11.632;2022-09-16T16:12:07;12.20;99.90